createdAt,value
2018-06-20T00:00:10.339Z,18.76
2018-06-20T00:01:46.182Z,18.65
2018-06-20T00:03:21.875Z,18.82
2018-06-20T00:04:57.448Z,18.77
2018-06-20T00:06:33.075Z,18.60
2018-06-20T00:08:08.668Z,18.54
2018-06-20T00:09:44.238Z,18.43
2018-06-20T00:11:21.671Z,18.42
2018-06-20T00:12:57.289Z,18.40
2018-06-20T00:14:32.870Z,18.46
2018-06-20T00:16:08.434Z,18.40
2018-06-20T00:17:44.051Z,18.40
2018-06-20T00:19:19.618Z,18.39
2018-06-20T00:20:55.214Z,18.55
2018-06-20T00:22:30.822Z,18.40
2018-06-20T00:24:06.367Z,18.31
2018-06-20T00:25:41.915Z,18.33
2018-06-20T00:27:17.529Z,18.32
2018-06-20T00:28:53.078Z,18.23
2018-06-20T00:30:28.715Z,18.24
2018-06-20T00:32:04.332Z,18.29
2018-06-20T00:33:39.967Z,18.40
2018-06-20T00:35:15.717Z,18.49
2018-06-20T00:36:51.329Z,18.42
2018-06-20T00:38:26.909Z,18.36
2018-06-20T00:40:02.711Z,18.37
2018-06-20T00:41:38.371Z,18.25
2018-06-20T00:43:13.962Z,18.24
2018-06-20T00:44:49.605Z,18.31
2018-06-20T00:46:25.201Z,18.37
2018-06-20T00:48:00.884Z,18.31
2018-06-20T00:49:36.477Z,18.22
2018-06-20T00:51:12.085Z,18.29
2018-06-20T00:52:47.726Z,18.26
2018-06-20T00:54:23.322Z,18.26
2018-06-20T00:56:10.319Z,18.15
2018-06-20T00:57:45.934Z,18.04
2018-06-20T00:59:21.520Z,18.09
2018-06-20T01:00:57.131Z,18.07
2018-06-20T01:02:32.777Z,18.08
2018-06-20T01:04:08.395Z,18.05
2018-06-20T01:05:43.988Z,18.13
2018-06-20T01:07:19.588Z,18.13
2018-06-20T01:08:56.691Z,18.08
2018-06-20T01:10:32.316Z,18.09
2018-06-20T01:12:07.879Z,18.05
2018-06-20T01:13:43.477Z,18.10
2018-06-20T01:15:19.142Z,18.30
2018-06-20T01:16:54.749Z,18.41
2018-06-20T01:18:30.625Z,18.26
2018-06-20T01:20:06.223Z,18.15
2018-06-20T01:21:41.818Z,18.00
2018-06-20T01:23:17.401Z,17.93
2018-06-20T01:24:53.303Z,17.94
2018-06-20T01:26:28.889Z,17.94
2018-06-20T01:28:04.456Z,17.97
2018-06-20T01:29:40.075Z,18.01
2018-06-20T01:31:15.718Z,18.09
2018-06-20T01:32:51.351Z,18.07
2018-06-20T01:34:27.009Z,18.09
2018-06-20T01:36:02.671Z,18.02
2018-06-20T01:37:38.282Z,17.99
2018-06-20T01:39:13.858Z,17.92
2018-06-20T01:40:49.470Z,17.87
2018-06-20T01:42:25.072Z,17.81
2018-06-20T01:44:00.729Z,17.87
2018-06-20T01:45:36.640Z,17.82
2018-06-20T01:47:12.215Z,17.95
2018-06-20T01:48:47.796Z,17.85
2018-06-20T01:50:26.997Z,17.79
2018-06-20T01:52:02.657Z,17.82
2018-06-20T01:53:38.372Z,17.87
2018-06-20T01:55:14.014Z,17.92
2018-06-20T01:56:49.620Z,18.09
2018-06-20T01:58:25.386Z,18.06
2018-06-20T02:00:01.758Z,18.09
2018-06-20T02:01:37.756Z,18.06
2018-06-20T02:03:13.432Z,18.09
2018-06-20T02:04:49.054Z,18.11
2018-06-20T02:06:24.684Z,18.14
2018-06-20T02:08:00.290Z,18.28
2018-06-20T02:09:35.876Z,18.31
2018-06-20T02:11:11.444Z,18.26
2018-06-20T02:12:47.066Z,18.37
2018-06-20T02:14:22.886Z,18.51
2018-06-20T02:15:58.451Z,18.53
2018-06-20T02:17:34.034Z,18.68
2018-06-20T02:19:09.618Z,18.77
2018-06-20T02:20:45.258Z,18.64
2018-06-20T02:22:20.837Z,18.54
2018-06-20T02:23:56.461Z,18.52
2018-06-20T02:25:32.474Z,18.67
2018-06-20T02:27:08.047Z,18.67
2018-06-20T02:32:54.791Z,18.49
2018-06-20T02:34:30.413Z,18.53
2018-06-20T02:36:11.314Z,18.64
2018-06-20T02:37:47.323Z,18.75
2018-06-20T02:39:22.973Z,18.82
2018-06-20T02:40:58.605Z,18.95
2018-06-20T02:42:34.239Z,19.00
2018-06-20T02:44:10.260Z,18.98
2018-06-20T02:45:45.895Z,18.84
2018-06-20T02:47:27.727Z,18.91
2018-06-20T02:49:03.384Z,19.02
2018-06-20T02:50:39.105Z,19.08
2018-06-20T02:52:14.685Z,19.17
2018-06-20T02:53:50.380Z,18.90
2018-06-20T02:55:26.018Z,18.81
2018-06-20T02:57:01.616Z,18.78
2018-06-20T02:58:37.338Z,18.81
2018-06-20T03:00:12.945Z,18.81
2018-06-20T03:01:48.594Z,18.77
2018-06-20T03:03:24.267Z,18.92
2018-06-20T03:04:59.831Z,18.80
2018-06-20T03:06:35.414Z,18.86
2018-06-20T03:08:11.387Z,18.80
2018-06-20T03:09:46.970Z,18.92
2018-06-20T03:11:22.620Z,18.87
2018-06-20T03:12:58.217Z,18.90
2018-06-20T03:14:34.637Z,18.73
2018-06-20T03:16:10.295Z,18.75
2018-06-20T03:17:46.317Z,18.75
2018-06-20T03:19:21.910Z,18.93
2018-06-20T03:20:57.539Z,19.02
2018-06-20T03:22:34.282Z,18.98
2018-06-20T03:24:09.867Z,18.98
2018-06-20T03:25:45.532Z,19.00
2018-06-20T03:27:21.170Z,19.03
2018-06-20T03:28:56.805Z,18.91
2018-06-20T03:30:32.490Z,18.93
2018-06-20T03:32:08.127Z,18.91
2018-06-20T03:33:44.277Z,18.84
2018-06-20T03:35:19.863Z,18.76
2018-06-20T03:36:55.659Z,18.73
2018-06-20T03:38:31.303Z,18.68
2018-06-20T03:40:06.938Z,18.70
2018-06-20T03:41:42.604Z,18.64
2018-06-20T03:43:18.261Z,18.70
2018-06-20T03:44:54.093Z,18.69
2018-06-20T03:46:29.698Z,18.61
2018-06-20T03:48:05.308Z,18.61
2018-06-20T03:49:40.998Z,18.68
2018-06-20T03:51:16.656Z,18.67
2018-06-20T03:52:52.266Z,18.60
2018-06-20T03:54:28.204Z,18.49
2018-06-20T03:56:03.788Z,18.35
2018-06-20T03:57:39.397Z,18.41
2018-06-20T03:59:15.039Z,18.44
2018-06-20T04:00:51.158Z,18.55
2018-06-20T04:02:26.728Z,18.63
2018-06-20T04:04:02.687Z,18.61
2018-06-20T04:05:38.282Z,18.67
2018-06-20T04:07:13.857Z,18.73
2018-06-20T04:08:49.484Z,18.83
2018-06-20T04:10:25.106Z,18.89
2018-06-20T04:12:00.658Z,18.94
2018-06-20T04:13:36.280Z,19.08
2018-06-20T04:15:11.993Z,19.32
2018-06-20T04:16:47.580Z,19.43
2018-06-20T04:18:29.241Z,19.61
2018-06-20T04:20:04.810Z,20.10
2018-06-20T04:21:40.439Z,22.54
2018-06-20T04:23:16.079Z,24.60
2018-06-20T04:24:51.701Z,26.25
2018-06-20T04:26:27.287Z,26.97
2018-06-20T04:28:03.017Z,26.97
2018-06-20T04:29:38.563Z,26.63
2018-06-20T04:31:14.166Z,25.15
2018-06-20T04:32:49.830Z,26.32
2018-06-20T04:34:25.824Z,27.54
2018-06-20T04:36:01.435Z,28.36
2018-06-20T04:37:38.213Z,28.77
2018-06-20T04:39:14.766Z,29.60
2018-06-20T04:40:50.501Z,29.99
2018-06-20T04:42:26.099Z,30.26
2018-06-20T04:44:01.728Z,30.06
2018-06-20T04:45:38.038Z,30.10
2018-06-20T04:47:14.098Z,30.25
2018-06-20T04:48:52.517Z,30.07
2018-06-20T04:50:29.748Z,29.52
2018-06-20T04:52:10.147Z,29.45
2018-06-20T04:53:46.457Z,29.50
2018-06-20T04:55:25.922Z,29.63
2018-06-20T04:57:02.492Z,29.80
2018-06-20T04:58:38.536Z,29.47
2018-06-20T05:00:17.005Z,28.44
2018-06-20T05:02:01.552Z,27.73
2018-06-20T05:03:40.974Z,27.25
2018-06-20T05:05:17.051Z,26.16
2018-06-20T05:06:56.227Z,25.60
2018-06-20T05:08:34.079Z,24.84
2018-06-20T05:10:10.650Z,24.58
2018-06-20T05:11:50.717Z,24.58
2018-06-20T05:13:30.390Z,24.40
2018-06-20T05:15:06.798Z,24.53
2018-06-20T05:16:43.318Z,24.75
2018-06-20T05:18:20.222Z,24.53
2018-06-20T05:19:57.741Z,24.42
2018-06-20T05:21:35.831Z,24.47
2018-06-20T05:23:15.167Z,24.36
2018-06-20T05:24:51.551Z,23.99
2018-06-20T05:26:27.306Z,23.91
2018-06-20T05:28:03.022Z,23.84
2018-06-20T05:29:38.689Z,23.95
2018-06-20T05:31:14.279Z,24.28
2018-06-20T05:32:50.132Z,24.30
2018-06-20T05:34:25.974Z,24.43
2018-06-20T05:36:01.904Z,24.49
2018-06-20T05:37:37.541Z,24.60
2018-06-20T05:39:13.401Z,24.61
2018-06-20T05:40:48.990Z,24.64
2018-06-20T05:42:26.676Z,24.70
2018-06-20T05:44:03.456Z,24.63
2018-06-20T05:45:39.478Z,24.77
2018-06-20T05:47:15.066Z,24.85
2018-06-20T05:48:50.694Z,24.79
2018-06-20T05:50:26.396Z,24.74
2018-06-20T05:52:02.274Z,24.55
2018-06-20T05:53:37.938Z,24.41
2018-06-20T05:55:13.871Z,24.34
2018-06-20T05:56:52.263Z,24.32
2018-06-20T05:58:28.088Z,24.41
2018-06-20T06:00:03.912Z,24.61
2018-06-20T06:01:39.556Z,24.78
2018-06-20T06:03:15.170Z,24.65
2018-06-20T06:04:50.748Z,25.14
2018-06-20T06:06:26.469Z,25.09
2018-06-20T06:08:08.787Z,25.15
2018-06-20T06:09:44.381Z,25.04
2018-06-20T06:11:20.600Z,24.80
2018-06-20T06:12:56.273Z,24.83
2018-06-20T06:14:32.047Z,25.10
2018-06-20T06:16:07.697Z,24.88
2018-06-20T06:17:44.195Z,24.94
2018-06-20T06:19:19.739Z,24.96
2018-06-20T06:20:55.370Z,24.97
2018-06-20T06:22:31.058Z,24.97
2018-06-20T06:24:06.709Z,25.06
2018-06-20T06:25:42.327Z,25.33
2018-06-20T06:27:17.939Z,25.28
2018-06-20T06:28:53.588Z,25.31
2018-06-20T06:30:29.196Z,25.54
2018-06-20T06:32:04.796Z,25.24
2018-06-20T06:33:40.525Z,25.06
2018-06-20T06:35:16.569Z,25.37
2018-06-20T06:36:52.203Z,25.60
2018-06-20T06:38:28.047Z,25.53
2018-06-20T06:40:03.759Z,25.55
2018-06-20T06:41:39.452Z,25.78
2018-06-20T06:43:15.074Z,26.01
2018-06-20T06:44:51.159Z,26.02
2018-06-20T06:46:26.775Z,25.94
2018-06-20T06:48:02.655Z,26.15
2018-06-20T06:49:38.330Z,26.27
2018-06-20T06:51:13.884Z,26.14
2018-06-20T06:52:49.526Z,26.21
2018-06-20T06:54:25.122Z,26.18
2018-06-20T06:56:01.306Z,26.34
2018-06-20T06:57:37.015Z,26.31
2018-06-20T06:59:12.632Z,26.64
2018-06-20T07:00:48.321Z,26.42
2018-06-20T07:02:24.194Z,26.39
2018-06-20T07:03:59.829Z,26.42
2018-06-20T07:05:35.430Z,26.43
2018-06-20T07:07:11.044Z,26.40
2018-06-20T07:08:46.607Z,26.45
2018-06-20T07:10:22.231Z,26.55
2018-06-20T07:11:58.103Z,26.63
2018-06-20T07:13:33.739Z,26.79
2018-06-20T07:15:09.412Z,26.94
2018-06-20T07:16:44.985Z,27.10
2018-06-20T07:18:22.810Z,27.19
2018-06-20T07:19:58.378Z,27.38
2018-06-20T07:21:34.242Z,27.45
2018-06-20T07:23:09.858Z,27.17
2018-06-20T07:24:45.467Z,27.10
2018-06-20T07:26:21.049Z,27.04
2018-06-20T07:27:56.660Z,27.36
2018-06-20T07:29:32.297Z,27.25
2018-06-20T07:31:07.871Z,27.33
2018-06-20T07:32:43.495Z,27.37
2018-06-20T07:34:19.150Z,27.18
2018-06-20T07:35:54.846Z,27.41
2018-06-20T07:37:30.375Z,27.48
2018-06-20T07:39:07.227Z,27.01
2018-06-20T07:40:42.993Z,27.17
2018-06-20T07:42:18.689Z,27.36
2018-06-20T07:43:54.355Z,27.24
2018-06-20T07:45:29.998Z,27.40
2018-06-20T07:47:05.918Z,27.64
2018-06-20T07:48:41.502Z,27.68
2018-06-20T07:50:19.339Z,27.81
2018-06-20T07:51:54.952Z,27.86
2018-06-20T07:53:30.591Z,27.84
2018-06-20T07:55:06.210Z,28.03
2018-06-20T07:56:41.851Z,27.97
2018-06-20T07:58:22.685Z,28.11
2018-06-20T08:00:03.588Z,27.84
2018-06-20T08:01:55.805Z,27.97
2018-06-20T08:03:36.953Z,27.98
2018-06-20T08:05:17.759Z,27.85
2018-06-20T08:06:58.764Z,28.14
2018-06-20T08:08:39.759Z,28.12
2018-06-20T08:10:21.645Z,28.18
2018-06-20T08:12:02.547Z,27.83
2018-06-20T08:13:43.481Z,27.54
2018-06-20T08:15:24.528Z,27.59
2018-06-20T08:17:06.246Z,27.22
2018-06-20T08:18:47.168Z,26.86
2018-06-20T08:20:25.001Z,26.65
2018-06-20T08:22:00.667Z,26.50
2018-06-20T08:23:36.245Z,26.23
2018-06-20T08:25:11.855Z,26.14
2018-06-20T08:26:47.420Z,26.10
2018-06-20T08:28:23.035Z,25.82
2018-06-20T08:29:59.343Z,25.61
2018-06-20T08:31:34.906Z,25.78
2018-06-20T08:33:10.531Z,25.88
2018-06-20T08:34:46.219Z,25.97
2018-06-20T08:36:22.072Z,25.79
2018-06-20T08:37:57.668Z,25.84
2018-06-20T08:39:33.356Z,25.99
2018-06-20T08:41:08.955Z,26.12
2018-06-20T08:42:44.534Z,26.19
2018-06-20T08:44:20.270Z,26.10
2018-06-20T08:45:55.907Z,26.03
2018-06-20T08:47:31.862Z,26.05
2018-06-20T08:49:14.251Z,26.09
2018-06-20T08:50:49.839Z,26.13
2018-06-20T08:52:25.789Z,26.20
2018-06-20T08:54:01.434Z,26.11
2018-06-20T08:55:37.063Z,26.15
2018-06-20T08:57:12.641Z,26.07
2018-06-20T08:58:48.262Z,26.06
2018-06-20T09:00:29.128Z,26.03
2018-06-20T09:02:04.772Z,26.12
2018-06-20T09:03:40.440Z,26.18
2018-06-20T09:05:21.382Z,26.11
2018-06-20T09:07:02.208Z,26.17
2018-06-20T09:08:43.152Z,26.37
2018-06-20T09:10:29.170Z,26.66
2018-06-20T09:12:11.175Z,26.76
2018-06-20T09:13:52.272Z,27.00
2018-06-20T09:15:33.518Z,27.00
2018-06-20T09:17:14.418Z,27.31
2018-06-20T09:18:55.387Z,27.48
2018-06-20T09:20:31.098Z,27.61
2018-06-20T09:22:06.690Z,27.92
2018-06-20T09:23:42.259Z,28.04
2018-06-20T09:25:17.887Z,28.14
2018-06-20T09:26:53.541Z,28.30
2018-06-20T09:28:29.255Z,28.27
2018-06-20T09:30:04.967Z,28.22
2018-06-20T09:31:41.750Z,28.37
2018-06-20T09:33:17.517Z,28.35
2018-06-20T09:34:53.796Z,28.39
2018-06-20T09:36:29.433Z,28.43
2018-06-20T09:38:05.044Z,28.47
2018-06-20T09:39:40.773Z,28.34
2018-06-20T09:41:16.652Z,27.97
2018-06-20T09:42:52.383Z,28.19
2018-06-20T09:44:28.449Z,28.46
2018-06-20T09:46:04.016Z,28.68
2018-06-20T09:47:39.631Z,28.83
2018-06-20T09:49:15.347Z,29.02
2018-06-20T09:50:56.894Z,29.09
2018-06-20T09:52:32.513Z,29.17
2018-06-20T09:54:08.090Z,29.02
2018-06-20T09:55:43.744Z,29.08
2018-06-20T09:57:19.445Z,29.02
2018-06-20T09:58:55.081Z,29.04
2018-06-20T10:00:36.079Z,29.31
2018-06-20T10:02:17.064Z,29.39
2018-06-20T10:03:57.951Z,29.45
2018-06-20T10:05:39.103Z,29.62
2018-06-20T10:07:18.950Z,29.48
2018-06-20T10:11:05.547Z,29.39
2018-06-20T10:13:18.467Z,29.69
2018-06-20T10:14:54.059Z,29.95
2018-06-20T10:16:30.767Z,30.04
2018-06-20T10:18:06.447Z,30.13
2018-06-20T10:19:42.112Z,30.23
2018-06-20T10:21:18.178Z,30.25
2018-06-20T10:22:54.176Z,30.22
2018-06-20T10:24:29.960Z,29.75
2018-06-20T10:26:06.377Z,29.51
2018-06-20T10:27:43.363Z,29.51
2018-06-20T10:29:19.862Z,29.14
2018-06-20T10:30:56.260Z,29.46
2018-06-20T10:32:32.587Z,29.35
2018-06-20T10:34:09.056Z,29.29
2018-06-20T10:35:45.800Z,29.41
2018-06-20T10:37:23.262Z,29.51
2018-06-20T10:39:00.067Z,29.64
2018-06-20T10:40:42.214Z,29.51
2018-06-20T10:42:20.317Z,29.60
2018-06-20T10:44:00.621Z,29.57
2018-06-20T10:45:50.454Z,29.66
2018-06-20T10:47:32.689Z,29.55
2018-06-20T10:49:09.097Z,29.49
2018-06-20T10:50:47.452Z,29.35
2018-06-20T10:52:24.035Z,29.49
2018-06-20T10:54:03.171Z,29.39
2018-06-20T10:55:39.620Z,29.46
2018-06-20T10:57:20.990Z,29.36
2018-06-20T10:59:01.939Z,29.71
2018-06-20T11:00:43.621Z,29.87
2018-06-20T11:02:24.735Z,29.79
2018-06-20T11:04:06.177Z,30.21
2018-06-20T11:05:48.487Z,30.11
2018-06-20T11:07:30.365Z,29.84
2018-06-20T11:09:13.413Z,29.59
2018-06-20T11:12:58.186Z,29.91
2018-06-20T11:14:34.315Z,29.76
2018-06-20T11:16:09.976Z,29.73
2018-06-20T11:17:46.231Z,29.84
2018-06-20T11:19:23.531Z,29.95
2018-06-20T11:21:00.123Z,30.05
2018-06-20T11:22:35.680Z,30.40
2018-06-20T11:24:11.525Z,30.66
2018-06-20T11:25:47.771Z,30.96
2018-06-20T11:27:23.929Z,31.09
2018-06-20T11:29:00.112Z,31.08
2018-06-20T11:30:36.060Z,30.52
2018-06-20T11:32:12.151Z,30.42
2018-06-20T11:33:48.395Z,30.45
2018-06-20T11:35:25.630Z,30.45
2018-06-20T11:37:02.863Z,30.28
2018-06-20T11:38:38.546Z,30.24
2018-06-20T11:40:14.484Z,30.15
2018-06-20T11:41:50.406Z,30.24
2018-06-20T11:43:26.349Z,30.29
2018-06-20T11:45:02.275Z,30.35
2018-06-20T11:46:44.191Z,30.12
2018-06-20T11:48:21.182Z,30.00
2018-06-20T11:49:57.397Z,29.83
2018-06-20T11:51:33.053Z,29.85
2018-06-20T11:53:11.671Z,29.98
2018-06-20T11:54:48.394Z,29.97
2018-06-20T11:56:24.536Z,30.13
2018-06-20T12:00:15.739Z,30.19
2018-06-20T12:01:56.975Z,30.38
2018-06-20T12:03:37.845Z,30.29
2018-06-20T12:05:19.369Z,30.13
2018-06-20T12:07:01.416Z,30.10
2018-06-20T12:08:42.553Z,29.90
2018-06-20T12:10:23.490Z,29.68
2018-06-20T12:12:04.444Z,29.84
2018-06-20T12:13:45.511Z,30.13
2018-06-20T12:15:28.243Z,30.38
2018-06-20T12:17:06.119Z,30.24
2018-06-20T12:18:49.264Z,30.39
2018-06-20T12:20:34.105Z,30.35
2018-06-20T12:22:14.973Z,30.26
2018-06-20T12:23:59.248Z,30.35
2018-06-20T12:25:45.993Z,30.40
2018-06-20T12:27:28.316Z,30.47
2018-06-20T12:29:11.747Z,30.41
2018-06-20T12:30:54.659Z,30.40
2018-06-20T12:32:35.727Z,30.53
2018-06-20T12:34:17.585Z,30.60
2018-06-20T12:35:58.542Z,30.58
2018-06-20T12:37:42.173Z,30.41
2018-06-20T12:39:17.405Z,30.60
2018-06-20T12:40:58.355Z,30.69
2018-06-20T12:42:39.507Z,30.77
2018-06-20T12:44:20.518Z,30.81
2018-06-20T12:46:02.231Z,30.83
2018-06-20T12:47:43.409Z,30.93
2018-06-20T12:49:21.443Z,31.07
2018-06-20T12:50:57.031Z,31.38
2018-06-20T12:52:32.856Z,31.59
2018-06-20T12:54:08.921Z,31.90
2018-06-20T12:55:44.709Z,31.87
2018-06-20T12:57:20.304Z,31.99
2018-06-20T12:58:57.759Z,31.74
2018-06-20T13:00:34.991Z,31.60
2018-06-20T13:02:18.460Z,31.53
2018-06-20T13:03:54.134Z,31.63
2018-06-20T13:05:31.580Z,31.11
2018-06-20T13:07:08.730Z,31.28
2018-06-20T13:08:44.382Z,31.34
2018-06-20T13:10:23.917Z,31.38
2018-06-20T13:12:00.081Z,31.25
2018-06-20T13:13:36.018Z,31.31
2018-06-20T13:15:11.598Z,31.09
2018-06-20T13:16:47.494Z,30.73
2018-06-20T13:18:23.337Z,30.75
2018-06-20T13:19:59.039Z,31.02
2018-06-20T13:21:34.780Z,31.48
2018-06-20T13:23:10.382Z,31.69
2018-06-20T13:24:45.991Z,31.54
2018-06-20T13:26:21.992Z,31.06
2018-06-20T13:27:57.686Z,30.81
2018-06-20T13:29:33.897Z,31.15
2018-06-20T13:31:15.077Z,31.02
2018-06-20T13:33:01.168Z,31.08
2018-06-20T13:34:41.954Z,31.18
2018-06-20T13:36:23.021Z,31.06
2018-06-20T13:38:04.119Z,31.36
2018-06-20T13:39:46.170Z,31.48
2018-06-20T13:41:32.783Z,31.51
2018-06-20T13:43:16.147Z,31.46
2018-06-20T13:44:51.766Z,31.58
2018-06-20T13:46:38.709Z,31.34
2018-06-20T13:48:19.880Z,31.42
2018-06-20T13:49:58.879Z,31.38
2018-06-20T13:51:34.561Z,31.21
2018-06-20T13:53:10.191Z,31.29
2018-06-20T13:54:48.311Z,31.47
2018-06-20T13:56:24.027Z,32.09
2018-06-20T13:58:00.707Z,32.08
2018-06-20T13:59:36.695Z,32.07
2018-06-20T14:01:12.363Z,32.33
2018-06-20T14:02:51.390Z,32.27
2018-06-20T14:04:28.781Z,31.90
2018-06-20T14:06:05.660Z,32.06
2018-06-20T14:07:42.048Z,31.92
2018-06-20T14:09:19.061Z,32.12
2018-06-20T14:10:59.157Z,32.09
2018-06-20T14:12:42.063Z,32.10
2018-06-20T14:14:19.095Z,32.12
2018-06-20T14:15:55.218Z,32.23
2018-06-20T14:17:30.963Z,32.22
2018-06-20T14:19:07.048Z,32.24
2018-06-20T14:20:48.816Z,31.99
2018-06-20T14:22:25.455Z,31.92
2018-06-20T14:24:02.282Z,31.91
2018-06-20T14:25:39.956Z,31.86
2018-06-20T14:27:15.955Z,31.73
2018-06-20T14:28:51.971Z,31.59
2018-06-20T14:32:40.321Z,31.39
2018-06-20T14:34:25.664Z,31.57
2018-06-20T14:36:06.944Z,31.71
2018-06-20T14:37:49.575Z,31.77
2018-06-20T14:39:31.058Z,31.85
2018-06-20T14:41:12.423Z,31.86
2018-06-20T14:42:55.037Z,31.98
2018-06-20T14:44:30.939Z,32.10
2018-06-20T14:46:12.119Z,32.01
2018-06-20T14:47:48.118Z,32.26
2018-06-20T14:49:25.563Z,31.99
2018-06-20T14:51:01.294Z,31.91
2018-06-20T14:52:37.034Z,32.05
2018-06-20T14:54:12.649Z,32.08
2018-06-20T14:55:48.258Z,32.06
2018-06-20T14:57:23.901Z,32.04
2018-06-20T14:58:59.518Z,32.05
2018-06-20T15:00:36.437Z,31.83
2018-06-20T15:02:12.628Z,32.03
2018-06-20T15:03:49.658Z,32.09
2018-06-20T15:05:25.282Z,31.96
2018-06-20T15:07:01.931Z,31.92
2018-06-20T15:08:37.552Z,31.89
2018-06-20T15:10:13.241Z,31.67
2018-06-20T15:11:48.847Z,31.62
2018-06-20T15:13:24.486Z,31.39
2018-06-20T15:15:00.156Z,31.65
2018-06-20T15:16:41.161Z,31.76
2018-06-20T15:18:17.255Z,31.82
2018-06-20T15:19:52.854Z,31.79
2018-06-20T15:21:28.567Z,31.41
2018-06-20T15:23:04.279Z,31.55
2018-06-20T15:24:40.510Z,31.48
2018-06-20T15:26:21.615Z,31.55
2018-06-20T15:30:04.006Z,31.52
2018-06-20T15:31:45.935Z,31.68
2018-06-20T15:33:26.814Z,31.75
2018-06-20T15:35:08.375Z,31.75
2018-06-20T15:36:49.289Z,31.79
2018-06-20T15:38:26.973Z,31.73
2018-06-20T15:40:02.954Z,31.77
2018-06-20T15:41:38.734Z,31.89
2018-06-20T15:43:14.490Z,31.96
2018-06-20T15:44:50.437Z,32.07
2018-06-20T15:46:26.086Z,32.05
2018-06-20T15:48:01.638Z,32.00
2018-06-20T15:49:37.254Z,32.00
2018-06-20T15:51:12.953Z,32.15
2018-06-20T15:52:48.528Z,32.02
2018-06-20T15:54:24.091Z,32.22
2018-06-20T15:55:59.834Z,32.27
2018-06-20T15:57:35.443Z,32.30
2018-06-20T15:59:11.096Z,32.30
2018-06-20T16:00:47.090Z,32.36
2018-06-20T16:02:23.423Z,32.49
2018-06-20T16:03:59.837Z,32.36
2018-06-20T16:05:38.357Z,32.34
2018-06-20T16:07:14.329Z,32.50
2018-06-20T16:08:56.034Z,32.73
2018-06-20T16:10:35.244Z,32.82
2018-06-20T16:12:12.788Z,32.78
2018-06-20T16:13:50.136Z,32.85
2018-06-20T16:15:26.428Z,32.75
2018-06-20T16:17:03.209Z,32.30
2018-06-20T16:18:43.248Z,32.35
2018-06-20T16:20:24.388Z,32.58
2018-06-20T16:22:05.247Z,32.34
2018-06-20T16:23:46.580Z,32.58
2018-06-20T16:25:29.479Z,32.55
2018-06-20T16:27:10.394Z,32.69
2018-06-20T16:28:51.376Z,32.82
2018-06-20T16:30:31.705Z,32.85
2018-06-20T16:32:07.292Z,32.89
2018-06-20T16:33:42.902Z,33.00
2018-06-20T16:35:18.675Z,33.13
2018-06-20T16:36:54.428Z,33.20
2018-06-20T16:38:31.486Z,33.18
2018-06-20T16:40:09.460Z,33.32
2018-06-20T16:41:47.841Z,33.37
2018-06-20T16:43:24.931Z,33.34
2018-06-20T16:45:02.996Z,33.41
2018-06-20T16:46:38.977Z,33.46
2018-06-20T16:48:15.734Z,33.47
2018-06-20T16:49:52.863Z,33.36
2018-06-20T16:51:28.539Z,33.28
2018-06-20T16:53:04.138Z,33.26
2018-06-20T16:54:39.986Z,33.15
2018-06-20T16:56:17.862Z,33.14
2018-06-20T16:57:54.940Z,33.22
2018-06-20T16:59:30.561Z,33.22
2018-06-20T17:01:11.963Z,33.31
2018-06-20T17:02:48.879Z,32.89
2018-06-20T17:04:24.531Z,32.52
2018-06-20T17:06:00.168Z,31.89
2018-06-20T17:07:36.706Z,31.73
2018-06-20T17:09:12.624Z,31.54
2018-06-20T17:10:49.484Z,31.47
2018-06-20T17:12:31.749Z,31.22
2018-06-20T17:14:13.475Z,31.08
2018-06-20T17:15:55.217Z,31.11
2018-06-20T17:17:36.307Z,31.01
2018-06-20T17:19:18.036Z,30.93
2018-06-20T17:21:00.068Z,30.83
2018-06-20T17:22:42.961Z,30.67
2018-06-20T17:24:24.133Z,30.58
2018-06-20T17:26:00.963Z,30.50
2018-06-20T17:27:37.159Z,30.45
2018-06-20T17:29:13.403Z,30.38
2018-06-20T17:30:49.927Z,30.25
2018-06-20T17:32:27.098Z,30.22
2018-06-20T17:34:03.223Z,30.25
2018-06-20T17:35:42.436Z,30.14
2018-06-20T17:37:18.188Z,30.11
2018-06-20T17:38:53.849Z,30.05
2018-06-20T17:40:29.777Z,29.95
2018-06-20T17:42:06.281Z,29.84
2018-06-20T17:43:42.468Z,29.84
2018-06-20T17:45:18.334Z,29.76
2018-06-20T17:46:54.332Z,29.69
2018-06-20T17:48:30.327Z,29.64
2018-06-20T17:50:06.675Z,29.55
2018-06-20T17:51:42.756Z,29.46
2018-06-20T17:53:18.422Z,29.42
2018-06-20T17:54:54.098Z,29.39
2018-06-20T17:56:30.018Z,29.28
2018-06-20T17:58:06.009Z,29.24
2018-06-20T17:59:41.804Z,29.12
2018-06-20T18:01:17.843Z,29.01
2018-06-20T18:02:53.643Z,29.04
2018-06-20T18:04:34.513Z,28.99
2018-06-20T18:06:15.625Z,28.90
2018-06-20T18:07:56.722Z,28.81
2018-06-20T18:09:37.783Z,28.69
2018-06-20T18:11:24.132Z,28.61
2018-06-20T18:13:03.302Z,28.61
2018-06-20T18:14:45.009Z,28.56
2018-06-20T18:16:26.101Z,28.50
2018-06-20T18:18:01.798Z,28.29
2018-06-20T18:19:38.286Z,28.21
2018-06-20T18:21:14.640Z,28.09
2018-06-20T18:22:50.598Z,28.11
2018-06-20T18:24:27.031Z,28.01
2018-06-20T18:26:03.039Z,28.01
2018-06-20T18:27:40.107Z,27.92
2018-06-20T18:29:16.550Z,27.97
2018-06-20T18:30:52.987Z,27.85
2018-06-20T18:32:29.553Z,27.88
2018-06-20T18:34:05.264Z,27.82
2018-06-20T18:35:41.918Z,27.74
2018-06-20T18:37:17.547Z,27.73
2018-06-20T18:38:53.198Z,27.64
2018-06-20T18:40:29.064Z,27.58
2018-06-20T18:42:04.959Z,27.53
2018-06-20T18:43:40.625Z,27.48
2018-06-20T18:45:17.032Z,27.47
2018-06-20T18:46:53.081Z,27.55
2018-06-20T18:48:29.370Z,27.46
2018-06-20T18:50:04.969Z,27.44
2018-06-20T18:51:40.617Z,27.42
2018-06-20T18:53:18.534Z,27.32
2018-06-20T18:54:54.756Z,27.16
2018-06-20T18:56:31.159Z,27.23
2018-06-20T18:58:12.631Z,27.16
2018-06-20T18:59:53.990Z,27.24
2018-06-20T19:01:34.890Z,27.42
2018-06-20T19:03:20.717Z,27.39
2018-06-20T19:05:12.070Z,27.16
2018-06-20T19:07:06.221Z,27.07
2018-06-20T19:08:48.015Z,27.16
2018-06-20T19:10:29.173Z,27.09
2018-06-20T19:12:07.644Z,27.08
2018-06-20T19:13:43.349Z,26.89
2018-06-20T19:15:19.864Z,26.85
2018-06-20T19:17:00.361Z,26.98
2018-06-20T19:18:38.892Z,26.94
2018-06-20T19:20:17.404Z,26.88
2018-06-20T19:21:56.732Z,26.75
2018-06-20T19:23:33.580Z,26.69
2018-06-20T19:25:10.352Z,26.68
2018-06-20T19:26:45.952Z,26.58
2018-06-20T19:28:27.668Z,26.58
2018-06-20T19:30:05.197Z,26.62
2018-06-20T19:31:41.959Z,26.55
2018-06-20T19:33:18.840Z,26.59
2018-06-20T19:34:58.274Z,26.56
2018-06-20T19:36:34.993Z,26.44
2018-06-20T19:38:18.737Z,26.49
2018-06-20T19:39:58.401Z,26.45
2018-06-20T19:41:36.504Z,26.52
2018-06-20T19:43:12.918Z,26.49
2018-06-20T19:44:54.435Z,26.39
2018-06-20T19:46:34.410Z,26.37
2018-06-20T19:48:11.394Z,26.38
2018-06-20T19:49:48.947Z,26.32
2018-06-20T19:51:24.744Z,26.13
2018-06-20T19:53:02.046Z,26.00
2018-06-20T19:54:38.554Z,25.85
2018-06-20T19:56:15.140Z,25.89
2018-06-20T19:57:51.114Z,25.91
2018-06-20T19:59:27.578Z,25.85
2018-06-20T20:01:03.193Z,25.79
2018-06-20T20:02:38.900Z,25.72
2018-06-20T20:04:17.067Z,25.78
2018-06-20T20:05:53.236Z,25.73
2018-06-20T20:07:30.700Z,25.67
2018-06-20T20:09:09.157Z,25.67
2018-06-20T20:10:46.481Z,25.58
2018-06-20T20:12:22.237Z,25.54
2018-06-20T20:13:58.151Z,25.40
2018-06-20T20:15:34.376Z,25.42
2018-06-20T20:17:10.008Z,25.33
2018-06-20T20:18:48.924Z,25.30
2018-06-20T20:20:24.569Z,25.23
2018-06-20T20:22:02.944Z,25.15
2018-06-20T20:23:38.537Z,25.22
2018-06-20T20:25:14.127Z,25.09
2018-06-20T20:26:50.077Z,25.06
2018-06-20T20:28:26.341Z,25.03
2018-06-20T20:30:01.967Z,24.93
2018-06-20T20:31:38.103Z,24.95
2018-06-20T20:33:13.763Z,24.91
2018-06-20T20:34:49.725Z,24.91
2018-06-20T20:36:25.402Z,24.87
2018-06-20T20:38:01.090Z,24.87
2018-06-20T20:39:36.725Z,24.88
2018-06-20T20:41:12.315Z,24.83
2018-06-20T20:42:47.924Z,24.74
2018-06-20T20:44:23.797Z,24.67
2018-06-20T20:45:59.412Z,24.59
2018-06-20T20:47:34.988Z,24.57
2018-06-20T20:49:11.359Z,24.55
2018-06-20T20:50:47.343Z,24.54
2018-06-20T20:52:23.777Z,24.53
2018-06-20T20:53:59.459Z,24.47
2018-06-20T20:55:35.636Z,24.42
2018-06-20T20:57:13.094Z,24.34
2018-06-20T20:58:48.765Z,24.29
2018-06-20T21:00:24.867Z,24.25
2018-06-20T21:02:00.657Z,24.21
2018-06-20T21:03:36.258Z,24.20
2018-06-20T21:05:11.906Z,24.15
2018-06-20T21:06:47.554Z,24.12